Sunset Beach, California
Current Conditions -  °F | °C
As of 7:58 AM on Sunday 21 Dec 2014 (Local Time) from KSLI Reporting Station
Broken Clouds Broken Clouds  
Wind Chill: 54°   Ceiling: 25000
Heat Index: 54°   Visibility: 8mi
Dew Point: 49°   Wind: 6mph
Humidity: 84%   Direction: 40°NE
Pressure: 30.14"   Gusts: NA
Location:  33.72°N, 118.07°W
Report Text: KSLI 211558Z 04005KT 8SM SCT014 BKN250 12/10 A3014 RMK AO2A SLP209 T01220096
Loading
Personal Weather Stations






























Interactive Weather Map New forecast layout! Learn more

10-Day Weather Forecast

Advertisements
Track Severe Weather on mobile